sensor_id;sensor_type;location;lat;lon;timestamp;P1;durP1;ratioP1;P2;durP2;ratioP2
67869;SDS011;54673;52.262;6.830;2023-08-30T00:00:14;5.10;;;2.90;;
67869;SDS011;54673;52.262;6.830;2023-08-30T00:02:42;8.53;;;4.10;;
67869;SDS011;54673;52.262;6.830;2023-08-30T00:05:09;9.37;;;4.10;;
67869;SDS011;54673;52.262;6.830;2023-08-30T00:07:35;4.82;;;3.05;;
67869;SDS011;54673;52.262;6.830;2023-08-30T00:10:01;7.85;;;5.10;;
67869;SDS011;54673;52.262;6.830;2023-08-30T00:12:27;4.33;;;3.23;;
67869;SDS011;54673;52.262;6.830;2023-08-30T00:14:53;6.55;;;3.90;;
67869;SDS011;54673;52.262;6.830;2023-08-30T00:17:19;4.70;;;3.10;;
67869;SDS011;54673;52.262;6.830;2023-08-30T00:19:45;5.47;;;3.22;;
67869;SDS011;54673;52.262;6.830;2023-08-30T00:22:10;5.90;;;3.55;;
67869;SDS011;54673;52.262;6.830;2023-08-30T00:24:37;4.77;;;2.93;;
67869;SDS011;54673;52.262;6.830;2023-08-30T00:27:03;4.63;;;2.88;;
67869;SDS011;54673;52.262;6.830;2023-08-30T00:29:29;4.10;;;2.88;;
67869;SDS011;54673;52.262;6.830;2023-08-30T00:31:55;4.73;;;3.20;;
67869;SDS011;54673;52.262;6.830;2023-08-30T00:34:21;7.38;;;4.97;;
67869;SDS011;54673;52.262;6.830;2023-08-30T00:36:47;6.93;;;5.13;;
67869;SDS011;54673;52.262;6.830;2023-08-30T00:39:12;5.70;;;3.90;;
67869;SDS011;54673;52.262;6.830;2023-08-30T00:41:38;5.35;;;3.97;;
67869;SDS011;54673;52.262;6.830;2023-08-30T00:44:04;5.13;;;3.17;;
67869;SDS011;54673;52.262;6.830;2023-08-30T00:46:30;6.25;;;3.60;;
67869;SDS011;54673;52.262;6.830;2023-08-30T00:48:58;4.90;;;3.07;;
67869;SDS011;54673;52.262;6.830;2023-08-30T00:51:27;3.67;;;2.57;;
67869;SDS011;54673;52.262;6.830;2023-08-30T00:53:54;4.30;;;2.75;;
67869;SDS011;54673;52.262;6.830;2023-08-30T00:56:20;4.17;;;2.90;;
67869;SDS011;54673;52.262;6.830;2023-08-30T00:58:47;3.80;;;3.03;;
67869;SDS011;54673;52.262;6.830;2023-08-30T01:01:14;3.40;;;2.72;;
67869;SDS011;54673;52.262;6.830;2023-08-30T01:03:41;4.13;;;3.20;;
67869;SDS011;54673;52.262;6.830;2023-08-30T01:06:06;4.32;;;2.80;;
67869;SDS011;54673;52.262;6.830;2023-08-30T01:08:33;4.85;;;2.70;;
67869;SDS011;54673;52.262;6.830;2023-08-30T01:13:33;4.63;;;2.70;;
67869;SDS011;54673;52.262;6.830;2023-08-30T01:16:05;4.27;;;2.90;;
67869;SDS011;54673;52.262;6.830;2023-08-30T01:18:32;5.33;;;3.50;;
67869;SDS011;54673;52.262;6.830;2023-08-30T01:21:01;6.53;;;2.95;;
67869;SDS011;54673;52.262;6.830;2023-08-30T01:26:12;3.97;;;2.73;;
67869;SDS011;54673;52.262;6.830;2023-08-30T01:28:41;4.40;;;3.05;;
67869;SDS011;54673;52.262;6.830;2023-08-30T01:31:07;4.90;;;3.20;;
67869;SDS011;54673;52.262;6.830;2023-08-30T01:33:34;3.88;;;2.95;;
67869;SDS011;54673;52.262;6.830;2023-08-30T01:36:01;2.90;;;2.40;;
67869;SDS011;54673;52.262;6.830;2023-08-30T01:38:29;4.87;;;3.00;;
67869;SDS011;54673;52.262;6.830;2023-08-30T01:40:56;4.43;;;2.65;;
67869;SDS011;54673;52.262;6.830;2023-08-30T01:43:25;4.35;;;2.60;;
67869;SDS011;54673;52.262;6.830;2023-08-30T01:45:53;4.00;;;2.90;;
67869;SDS011;54673;52.262;6.830;2023-08-30T01:48:21;4.35;;;2.92;;
67869;SDS011;54673;52.262;6.830;2023-08-30T01:50:48;5.77;;;3.80;;
67869;SDS011;54673;52.262;6.830;2023-08-30T01:53:14;7.13;;;2.77;;
67869;SDS011;54673;52.262;6.830;2023-08-30T01:55:41;3.20;;;2.78;;
67869;SDS011;54673;52.262;6.830;2023-08-30T01:58:07;4.60;;;3.00;;
67869;SDS011;54673;52.262;6.830;2023-08-30T02:00:34;3.35;;;2.60;;
67869;SDS011;54673;52.262;6.830;2023-08-30T02:03:06;4.55;;;2.75;;
67869;SDS011;54673;52.262;6.830;2023-08-30T02:05:36;5.47;;;3.63;;
67869;SDS011;54673;52.262;6.830;2023-08-30T02:08:15;5.95;;;3.10;;
67869;SDS011;54673;52.262;6.830;2023-08-30T02:10:44;4.27;;;2.93;;
67869;SDS011;54673;52.262;6.830;2023-08-30T02:13:27;5.47;;;2.70;;
67869;SDS011;54673;52.262;6.830;2023-08-30T02:15:55;5.38;;;3.40;;
67869;SDS011;54673;52.262;6.830;2023-08-30T02:18:23;5.33;;;2.93;;
67869;SDS011;54673;52.262;6.830;2023-08-30T02:20:50;4.63;;;2.70;;
67869;SDS011;54673;52.262;6.830;2023-08-30T02:23:16;9.40;;;4.88;;
67869;SDS011;54673;52.262;6.830;2023-08-30T02:25:41;7.80;;;4.80;;
67869;SDS011;54673;52.262;6.830;2023-08-30T02:28:07;4.78;;;2.80;;
67869;SDS011;54673;52.262;6.830;2023-08-30T02:30:32;5.63;;;2.83;;
67869;SDS011;54673;52.262;6.830;2023-08-30T02:32:58;4.10;;;2.80;;
67869;SDS011;54673;52.262;6.830;2023-08-30T02:35:24;5.55;;;3.03;;
67869;SDS011;54673;52.262;6.830;2023-08-30T02:37:51;9.17;;;5.97;;
67869;SDS011;54673;52.262;6.830;2023-08-30T02:40:16;7.15;;;4.40;;
67869;SDS011;54673;52.262;6.830;2023-08-30T02:42:42;4.37;;;3.10;;
67869;SDS011;54673;52.262;6.830;2023-08-30T02:45:08;4.57;;;3.22;;
67869;SDS011;54673;52.262;6.830;2023-08-30T02:47:34;4.97;;;3.30;;
67869;SDS011;54673;52.262;6.830;2023-08-30T02:49:59;6.50;;;3.97;;
67869;SDS011;54673;52.262;6.830;2023-08-30T02:52:25;5.97;;;3.00;;
67869;SDS011;54673;52.262;6.830;2023-08-30T02:54:50;7.28;;;4.13;;
67869;SDS011;54673;52.262;6.830;2023-08-30T02:57:16;6.17;;;3.47;;
67869;SDS011;54673;52.262;6.830;2023-08-30T02:59:42;3.93;;;3.07;;
67869;SDS011;54673;52.262;6.830;2023-08-30T03:02:07;6.38;;;3.30;;
67869;SDS011;54673;52.262;6.830;2023-08-30T03:04:33;6.07;;;3.00;;
67869;SDS011;54673;52.262;6.830;2023-08-30T03:06:59;3.47;;;2.83;;
67869;SDS011;54673;52.262;6.830;2023-08-30T03:09:24;5.63;;;3.23;;
67869;SDS011;54673;52.262;6.830;2023-08-30T03:11:50;6.67;;;4.10;;
67869;SDS011;54673;52.262;6.830;2023-08-30T03:14:16;5.57;;;3.50;;
67869;SDS011;54673;52.262;6.830;2023-08-30T03:16:41;8.20;;;3.40;;
67869;SDS011;54673;52.262;6.830;2023-08-30T03:19:09;8.18;;;4.45;;
67869;SDS011;54673;52.262;6.830;2023-08-30T03:21:35;9.07;;;5.83;;
67869;SDS011;54673;52.262;6.830;2023-08-30T03:24:01;6.32;;;3.88;;
67869;SDS011;54673;52.262;6.830;2023-08-30T03:26:26;8.80;;;6.13;;
67869;SDS011;54673;52.262;6.830;2023-08-30T03:28:52;5.65;;;3.78;;
67869;SDS011;54673;52.262;6.830;2023-08-30T03:31:18;6.17;;;3.67;;
67869;SDS011;54673;52.262;6.830;2023-08-30T03:33:45;5.97;;;3.42;;
67869;SDS011;54673;52.262;6.830;2023-08-30T03:36:12;12.33;;;7.30;;
67869;SDS011;54673;52.262;6.830;2023-08-30T03:38:39;6.05;;;3.90;;
67869;SDS011;54673;52.262;6.830;2023-08-30T03:41:05;7.85;;;5.10;;
67869;SDS011;54673;52.262;6.830;2023-08-30T03:43:31;6.10;;;4.50;;
67869;SDS011;54673;52.262;6.830;2023-08-30T03:45:58;9.65;;;6.40;;
67869;SDS011;54673;52.262;6.830;2023-08-30T03:48:24;5.20;;;3.93;;
67869;SDS011;54673;52.262;6.830;2023-08-30T03:50:50;5.90;;;3.67;;
67869;SDS011;54673;52.262;6.830;2023-08-30T03:53:16;13.33;;;7.37;;
67869;SDS011;54673;52.262;6.830;2023-08-30T03:55:41;4.63;;;3.72;;
67869;SDS011;54673;52.262;6.830;2023-08-30T03:58:07;4.73;;;3.50;;
67869;SDS011;54673;52.262;6.830;2023-08-30T04:00:35;6.10;;;3.53;;
67869;SDS011;54673;52.262;6.830;2023-08-30T04:03:02;8.53;;;5.67;;
67869;SDS011;54673;52.262;6.830;2023-08-30T04:05:32;6.35;;;4.10;;
67869;SDS011;54673;52.262;6.830;2023-08-30T04:07:58;9.27;;;4.72;;
67869;SDS011;54673;52.262;6.830;2023-08-30T04:10:25;6.93;;;3.73;;
67869;SDS011;54673;52.262;6.830;2023-08-30T04:12:51;7.78;;;4.18;;
67869;SDS011;54673;52.262;6.830;2023-08-30T04:15:16;6.03;;;4.00;;
67869;SDS011;54673;52.262;6.830;2023-08-30T04:17:42;6.72;;;4.10;;
67869;SDS011;54673;52.262;6.830;2023-08-30T04:20:08;6.37;;;3.63;;
67869;SDS011;54673;52.262;6.830;2023-08-30T04:22:35;5.45;;;3.70;;
67869;SDS011;54673;52.262;6.830;2023-08-30T04:25:01;6.30;;;4.17;;
67869;SDS011;54673;52.262;6.830;2023-08-30T04:27:28;7.07;;;5.15;;
67869;SDS011;54673;52.262;6.830;2023-08-30T04:29:54;9.97;;;6.40;;
67869;SDS011;54673;52.262;6.830;2023-08-30T04:32:19;5.65;;;4.40;;
67869;SDS011;54673;52.262;6.830;2023-08-30T04:34:45;7.73;;;3.77;;
67869;SDS011;54673;52.262;6.830;2023-08-30T04:37:10;9.65;;;5.93;;
67869;SDS011;54673;52.262;6.830;2023-08-30T04:39:36;11.27;;;6.60;;
67869;SDS011;54673;52.262;6.830;2023-08-30T04:42:02;6.53;;;4.35;;
67869;SDS011;54673;52.262;6.830;2023-08-30T04:44:28;6.03;;;3.60;;
67869;SDS011;54673;52.262;6.830;2023-08-30T04:46:54;6.20;;;4.18;;
67869;SDS011;54673;52.262;6.830;2023-08-30T04:49:20;6.47;;;4.10;;
67869;SDS011;54673;52.262;6.830;2023-08-30T04:51:46;6.88;;;3.85;;
67869;SDS011;54673;52.262;6.830;2023-08-30T04:54:12;6.38;;;3.72;;
67869;SDS011;54673;52.262;6.830;2023-08-30T04:56:38;6.40;;;3.83;;
67869;SDS011;54673;52.262;6.830;2023-08-30T04:59:03;6.38;;;3.75;;
67869;SDS011;54673;52.262;6.830;2023-08-30T05:01:29;6.20;;;3.67;;
67869;SDS011;54673;52.262;6.830;2023-08-30T05:03:55;6.72;;;4.30;;
67869;SDS011;54673;52.262;6.830;2023-08-30T05:06:21;5.43;;;3.77;;
67869;SDS011;54673;52.262;6.830;2023-08-30T05:08:47;7.07;;;4.00;;
67869;SDS011;54673;52.262;6.830;2023-08-30T05:11:13;6.07;;;4.00;;
67869;SDS011;54673;52.262;6.830;2023-08-30T05:13:38;8.77;;;3.63;;
67869;SDS011;54673;52.262;6.830;2023-08-30T05:16:04;5.27;;;3.50;;
67869;SDS011;54673;52.262;6.830;2023-08-30T05:18:30;5.88;;;3.58;;
67869;SDS011;54673;52.262;6.830;2023-08-30T05:20:55;5.93;;;3.80;;
67869;SDS011;54673;52.262;6.830;2023-08-30T05:23:21;5.95;;;3.70;;
67869;SDS011;54673;52.262;6.830;2023-08-30T05:25:47;5.87;;;3.80;;
67869;SDS011;54673;52.262;6.830;2023-08-30T05:28:12;6.82;;;4.25;;
67869;SDS011;54673;52.262;6.830;2023-08-30T05:30:42;6.07;;;3.60;;
67869;SDS011;54673;52.262;6.830;2023-08-30T05:33:09;7.80;;;4.25;;
67869;SDS011;54673;52.262;6.830;2023-08-30T05:35:35;6.90;;;4.03;;
67869;SDS011;54673;52.262;6.830;2023-08-30T05:38:00;5.63;;;3.80;;
67869;SDS011;54673;52.262;6.830;2023-08-30T05:40:26;5.97;;;3.37;;
67869;SDS011;54673;52.262;6.830;2023-08-30T05:42:51;6.60;;;3.80;;
67869;SDS011;54673;52.262;6.830;2023-08-30T05:45:17;6.38;;;3.80;;
67869;SDS011;54673;52.262;6.830;2023-08-30T05:47:43;7.07;;;3.87;;
67869;SDS011;54673;52.262;6.830;2023-08-30T05:50:10;11.98;;;6.10;;
67869;SDS011;54673;52.262;6.830;2023-08-30T05:52:35;7.63;;;4.73;;
67869;SDS011;54673;52.262;6.830;2023-08-30T05:55:06;6.22;;;3.72;;
67869;SDS011;54673;52.262;6.830;2023-08-30T05:57:33;6.97;;;3.72;;
67869;SDS011;54673;52.262;6.830;2023-08-30T05:59:59;8.93;;;4.70;;
67869;SDS011;54673;52.262;6.830;2023-08-30T06:02:25;7.22;;;3.85;;
67869;SDS011;54673;52.262;6.830;2023-08-30T06:04:51;5.57;;;3.73;;
67869;SDS011;54673;52.262;6.830;2023-08-30T06:07:16;6.63;;;3.65;;
67869;SDS011;54673;52.262;6.830;2023-08-30T06:09:42;4.93;;;3.10;;
67869;SDS011;54673;52.262;6.830;2023-08-30T06:12:08;6.80;;;3.90;;
67869;SDS011;54673;52.262;6.830;2023-08-30T06:14:33;6.45;;;3.50;;
67869;SDS011;54673;52.262;6.830;2023-08-30T06:16:59;8.00;;;3.92;;
67869;SDS011;54673;52.262;6.830;2023-08-30T06:19:25;6.93;;;3.70;;
67869;SDS011;54673;52.262;6.830;2023-08-30T06:21:50;14.67;;;7.43;;
67869;SDS011;54673;52.262;6.830;2023-08-30T06:24:16;6.22;;;4.00;;
67869;SDS011;54673;52.262;6.830;2023-08-30T06:26:41;15.73;;;7.37;;
67869;SDS011;54673;52.262;6.830;2023-08-30T06:29:07;14.48;;;7.70;;
67869;SDS011;54673;52.262;6.830;2023-08-30T06:31:32;7.03;;;3.57;;
67869;SDS011;54673;52.262;6.830;2023-08-30T06:33:58;9.30;;;5.20;;
67869;SDS011;54673;52.262;6.830;2023-08-30T06:36:24;7.97;;;5.03;;
67869;SDS011;54673;52.262;6.830;2023-08-30T06:38:49;10.17;;;4.97;;
67869;SDS011;54673;52.262;6.830;2023-08-30T06:41:15;12.60;;;6.25;;
67869;SDS011;54673;52.262;6.830;2023-08-30T06:43:41;6.43;;;3.70;;
67869;SDS011;54673;52.262;6.830;2023-08-30T06:46:06;7.95;;;4.38;;
67869;SDS011;54673;52.262;6.830;2023-08-30T06:48:35;12.47;;;7.17;;
67869;SDS011;54673;52.262;6.830;2023-08-30T06:51:01;17.20;;;8.48;;
67869;SDS011;54673;52.262;6.830;2023-08-30T06:53:27;12.53;;;6.10;;
67869;SDS011;54673;52.262;6.830;2023-08-30T06:55:57;8.93;;;4.00;;
67869;SDS011;54673;52.262;6.830;2023-08-30T06:58:29;10.02;;;5.45;;
67869;SDS011;54673;52.262;6.830;2023-08-30T07:00:56;9.93;;;5.70;;
67869;SDS011;54673;52.262;6.830;2023-08-30T07:03:22;16.73;;;7.90;;
67869;SDS011;54673;52.262;6.830;2023-08-30T07:05:50;14.57;;;7.30;;
67869;SDS011;54673;52.262;6.830;2023-08-30T07:08:16;19.15;;;8.40;;
67869;SDS011;54673;52.262;6.830;2023-08-30T07:10:42;9.37;;;4.67;;
67869;SDS011;54673;52.262;6.830;2023-08-30T07:13:08;16.55;;;8.07;;
67869;SDS011;54673;52.262;6.830;2023-08-30T07:15:38;11.15;;;4.88;;
67869;SDS011;54673;52.262;6.830;2023-08-30T07:18:04;12.90;;;6.93;;
67869;SDS011;54673;52.262;6.830;2023-08-30T07:20:31;11.68;;;6.78;;
67869;SDS011;54673;52.262;6.830;2023-08-30T07:22:56;8.27;;;4.77;;
67869;SDS011;54673;52.262;6.830;2023-08-30T07:25:22;14.90;;;6.82;;
67869;SDS011;54673;52.262;6.830;2023-08-30T07:27:49;8.23;;;3.92;;
67869;SDS011;54673;52.262;6.830;2023-08-30T07:30:14;15.53;;;6.70;;
67869;SDS011;54673;52.262;6.830;2023-08-30T07:32:40;7.45;;;4.13;;
67869;SDS011;54673;52.262;6.830;2023-08-30T07:35:06;9.63;;;5.80;;
67869;SDS011;54673;52.262;6.830;2023-08-30T07:37:32;14.43;;;7.13;;
67869;SDS011;54673;52.262;6.830;2023-08-30T07:39:59;18.20;;;9.30;;
67869;SDS011;54673;52.262;6.830;2023-08-30T07:42:25;9.02;;;5.47;;
67869;SDS011;54673;52.262;6.830;2023-08-30T07:44:53;17.53;;;8.80;;
67869;SDS011;54673;52.262;6.830;2023-08-30T07:47:19;10.15;;;5.88;;
67869;SDS011;54673;52.262;6.830;2023-08-30T07:49:44;17.13;;;9.03;;
67869;SDS011;54673;52.262;6.830;2023-08-30T07:52:10;16.80;;;8.55;;
67869;SDS011;54673;52.262;6.830;2023-08-30T07:54:36;14.97;;;7.73;;
67869;SDS011;54673;52.262;6.830;2023-08-30T07:57:03;15.23;;;6.95;;
67869;SDS011;54673;52.262;6.830;2023-08-30T07:59:29;15.30;;;8.43;;
67869;SDS011;54673;52.262;6.830;2023-08-30T08:01:57;16.02;;;8.73;;
67869;SDS011;54673;52.262;6.830;2023-08-30T08:04:23;13.80;;;7.10;;
67869;SDS011;54673;52.262;6.830;2023-08-30T08:06:48;18.48;;;8.13;;
67869;SDS011;54673;52.262;6.830;2023-08-30T08:09:14;17.50;;;8.30;;
67869;SDS011;54673;52.262;6.830;2023-08-30T08:11:40;16.45;;;8.10;;
67869;SDS011;54673;52.262;6.830;2023-08-30T08:14:08;14.57;;;7.67;;
67869;SDS011;54673;52.262;6.830;2023-08-30T08:16:35;18.73;;;9.65;;
67869;SDS011;54673;52.262;6.830;2023-08-30T08:19:01;15.97;;;8.73;;
67869;SDS011;54673;52.262;6.830;2023-08-30T08:21:26;16.05;;;7.78;;
67869;SDS011;54673;52.262;6.830;2023-08-30T08:23:52;12.53;;;7.60;;
67869;SDS011;54673;52.262;6.830;2023-08-30T08:26:18;19.08;;;9.73;;
67869;SDS011;54673;52.262;6.830;2023-08-30T08:28:43;21.27;;;10.30;;
67869;SDS011;54673;52.262;6.830;2023-08-30T08:31:09;14.07;;;6.32;;
67869;SDS011;54673;52.262;6.830;2023-08-30T08:33:35;11.70;;;5.20;;
67869;SDS011;54673;52.262;6.830;2023-08-30T08:36:01;14.07;;;7.50;;
67869;SDS011;54673;52.262;6.830;2023-08-30T08:38:27;11.87;;;5.13;;
67869;SDS011;54673;52.262;6.830;2023-08-30T08:41:02;14.02;;;8.50;;
67869;SDS011;54673;52.262;6.830;2023-08-30T08:43:30;19.23;;;8.77;;
67869;SDS011;54673;52.262;6.830;2023-08-30T08:46:01;21.37;;;10.20;;
67869;SDS011;54673;52.262;6.830;2023-08-30T08:48:28;10.32;;;5.53;;
67869;SDS011;54673;52.262;6.830;2023-08-30T08:50:55;12.80;;;6.33;;
67869;SDS011;54673;52.262;6.830;2023-08-30T08:53:21;20.27;;;10.15;;
67869;SDS011;54673;52.262;6.830;2023-08-30T08:55:48;14.80;;;7.80;;
67869;SDS011;54673;52.262;6.830;2023-08-30T08:58:14;8.40;;;5.07;;
67869;SDS011;54673;52.262;6.830;2023-08-30T09:00:43;15.98;;;8.90;;
67869;SDS011;54673;52.262;6.830;2023-08-30T09:03:10;13.82;;;7.00;;
67869;SDS011;54673;52.262;6.830;2023-08-30T09:05:39;18.63;;;10.13;;
67869;SDS011;54673;52.262;6.830;2023-08-30T09:08:05;19.30;;;9.20;;
67869;SDS011;54673;52.262;6.830;2023-08-30T09:10:34;13.13;;;7.40;;
67869;SDS011;54673;52.262;6.830;2023-08-30T09:13:01;21.20;;;10.77;;
67869;SDS011;54673;52.262;6.830;2023-08-30T09:15:30;16.25;;;8.98;;
67869;SDS011;54673;52.262;6.830;2023-08-30T09:17:59;16.63;;;7.20;;
67869;SDS011;54673;52.262;6.830;2023-08-30T09:20:25;17.27;;;9.50;;
67869;SDS011;54673;52.262;6.830;2023-08-30T09:22:51;11.93;;;6.38;;
67869;SDS011;54673;52.262;6.830;2023-08-30T09:25:26;12.73;;;6.83;;
67869;SDS011;54673;52.262;6.830;2023-08-30T09:27:59;15.63;;;7.45;;
67869;SDS011;54673;52.262;6.830;2023-08-30T09:30:25;9.47;;;5.80;;
67869;SDS011;54673;52.262;6.830;2023-08-30T09:32:52;11.20;;;5.37;;
67869;SDS011;54673;52.262;6.830;2023-08-30T09:35:17;13.73;;;8.40;;
67869;SDS011;54673;52.262;6.830;2023-08-30T09:37:46;9.03;;;5.13;;
67869;SDS011;54673;52.262;6.830;2023-08-30T09:40:17;10.63;;;6.28;;
67869;SDS011;54673;52.262;6.830;2023-08-30T09:42:43;11.85;;;4.97;;
67869;SDS011;54673;52.262;6.830;2023-08-30T09:45:19;9.70;;;5.73;;
67869;SDS011;54673;52.262;6.830;2023-08-30T09:47:48;18.38;;;10.32;;
67869;SDS011;54673;52.262;6.830;2023-08-30T09:50:18;21.07;;;11.37;;
67869;SDS011;54673;52.262;6.830;2023-08-30T09:52:51;12.32;;;6.50;;
67869;SDS011;54673;52.262;6.830;2023-08-30T09:55:18;10.63;;;6.28;;
67869;SDS011;54673;52.262;6.830;2023-08-30T09:57:44;12.53;;;6.60;;
67869;SDS011;54673;52.262;6.830;2023-08-30T10:00:10;18.95;;;9.65;;
67869;SDS011;54673;52.262;6.830;2023-08-30T10:02:37;13.85;;;7.45;;
67869;SDS011;54673;52.262;6.830;2023-08-30T10:05:07;16.73;;;8.60;;
67869;SDS011;54673;52.262;6.830;2023-08-30T10:07:34;17.10;;;9.57;;
67869;SDS011;54673;52.262;6.830;2023-08-30T10:10:02;16.33;;;7.93;;
67869;SDS011;54673;52.262;6.830;2023-08-30T10:12:32;13.00;;;7.57;;
67869;SDS011;54673;52.262;6.830;2023-08-30T10:14:58;17.27;;;10.75;;
67869;SDS011;54673;52.262;6.830;2023-08-30T10:17:27;18.42;;;9.38;;
67869;SDS011;54673;52.262;6.830;2023-08-30T10:19:56;16.70;;;10.23;;
67869;SDS011;54673;52.262;6.830;2023-08-30T10:22:22;17.92;;;10.32;;
67869;SDS011;54673;52.262;6.830;2023-08-30T10:25:02;15.77;;;7.88;;
67869;SDS011;54673;52.262;6.830;2023-08-30T10:27:33;14.60;;;7.50;;
67869;SDS011;54673;52.262;6.830;2023-08-30T10:30:01;17.20;;;7.95;;
67869;SDS011;54673;52.262;6.830;2023-08-30T10:32:28;11.05;;;7.40;;
67869;SDS011;54673;52.262;6.830;2023-08-30T10:34:54;15.70;;;9.43;;
67869;SDS011;54673;52.262;6.830;2023-08-30T10:37:23;10.30;;;6.63;;
67869;SDS011;54673;52.262;6.830;2023-08-30T10:39:49;11.95;;;6.75;;
67869;SDS011;54673;52.262;6.830;2023-08-30T10:42:15;15.40;;;9.27;;
67869;SDS011;54673;52.262;6.830;2023-08-30T10:44:48;9.27;;;6.03;;
67869;SDS011;54673;52.262;6.830;2023-08-30T10:47:29;9.00;;;5.50;;
67869;SDS011;54673;52.262;6.830;2023-08-30T10:49:56;10.15;;;5.78;;
67869;SDS011;54673;52.262;6.830;2023-08-30T10:52:26;8.67;;;6.23;;
67869;SDS011;54673;52.262;6.830;2023-08-30T10:54:53;12.52;;;6.95;;
67869;SDS011;54673;52.262;6.830;2023-08-30T10:57:29;11.07;;;6.07;;
67869;SDS011;54673;52.262;6.830;2023-08-30T11:00:07;9.00;;;6.07;;
67869;SDS011;54673;52.262;6.830;2023-08-30T11:02:34;12.23;;;7.05;;
67869;SDS011;54673;52.262;6.830;2023-08-30T11:05:02;8.97;;;6.03;;
67869;SDS011;54673;52.262;6.830;2023-08-30T11:07:30;8.45;;;5.30;;
67869;SDS011;54673;52.262;6.830;2023-08-30T11:09:57;7.43;;;4.78;;
67869;SDS011;54673;52.262;6.830;2023-08-30T11:12:24;7.93;;;4.83;;
67869;SDS011;54673;52.262;6.830;2023-08-30T11:14:51;7.93;;;4.53;;
67869;SDS011;54673;52.262;6.830;2023-08-30T11:17:18;9.98;;;5.00;;
67869;SDS011;54673;52.262;6.830;2023-08-30T11:19:44;8.57;;;5.00;;
67869;SDS011;54673;52.262;6.830;2023-08-30T11:22:10;7.95;;;4.82;;
67869;SDS011;54673;52.262;6.830;2023-08-30T11:24:38;9.40;;;5.43;;
67869;SDS011;54673;52.262;6.830;2023-08-30T11:27:04;8.17;;;5.87;;
67869;SDS011;54673;52.262;6.830;2023-08-30T11:29:30;7.85;;;4.55;;
67869;SDS011;54673;52.262;6.830;2023-08-30T11:31:55;8.47;;;5.57;;
67869;SDS011;54673;52.262;6.830;2023-08-30T11:34:21;6.50;;;3.97;;
67869;SDS011;54673;52.262;6.830;2023-08-30T11:36:47;7.23;;;4.57;;
67869;SDS011;54673;52.262;6.830;2023-08-30T11:39:15;7.32;;;3.63;;
67869;SDS011;54673;52.262;6.830;2023-08-30T11:41:41;6.47;;;4.28;;
67869;SDS011;54673;52.262;6.830;2023-08-30T11:44:08;5.87;;;4.00;;
67869;SDS011;54673;52.262;6.830;2023-08-30T11:46:34;9.02;;;4.00;;
67869;SDS011;54673;52.262;6.830;2023-08-30T11:49:00;4.43;;;3.40;;
67869;SDS011;54673;52.262;6.830;2023-08-30T11:51:25;6.30;;;4.47;;
67869;SDS011;54673;52.262;6.830;2023-08-30T11:53:51;6.72;;;4.20;;
67869;SDS011;54673;52.262;6.830;2023-08-30T11:56:19;7.17;;;5.30;;
67869;SDS011;54673;52.262;6.830;2023-08-30T11:58:45;6.00;;;4.50;;
67869;SDS011;54673;52.262;6.830;2023-08-30T12:01:11;4.63;;;3.42;;
67869;SDS011;54673;52.262;6.830;2023-08-30T12:03:37;7.77;;;4.50;;
67869;SDS011;54673;52.262;6.830;2023-08-30T12:06:08;6.10;;;4.45;;
67869;SDS011;54673;52.262;6.830;2023-08-30T12:08:37;5.40;;;3.70;;
67869;SDS011;54673;52.262;6.830;2023-08-30T12:11:03;10.60;;;4.83;;
67869;SDS011;54673;52.262;6.830;2023-08-30T12:13:29;8.32;;;5.15;;
67869;SDS011;54673;52.262;6.830;2023-08-30T12:15:57;8.80;;;6.03;;
67869;SDS011;54673;52.262;6.830;2023-08-30T12:18:24;8.88;;;6.30;;
67869;SDS011;54673;52.262;6.830;2023-08-30T12:20:54;9.18;;;5.35;;
67869;SDS011;54673;52.262;6.830;2023-08-30T12:23:24;6.57;;;5.33;;
67869;SDS011;54673;52.262;6.830;2023-08-30T12:28:25;9.13;;;5.88;;
67869;SDS011;54673;52.262;6.830;2023-08-30T12:30:51;11.37;;;6.80;;
67869;SDS011;54673;52.262;6.830;2023-08-30T12:33:17;10.80;;;7.00;;
67869;SDS011;54673;52.262;6.830;2023-08-30T12:35:45;10.00;;;6.45;;
67869;SDS011;54673;52.262;6.830;2023-08-30T12:38:10;6.70;;;5.10;;
67869;SDS011;54673;52.262;6.830;2023-08-30T12:40:48;8.98;;;4.97;;
67869;SDS011;54673;52.262;6.830;2023-08-30T12:43:15;9.35;;;6.40;;
67869;SDS011;54673;52.262;6.830;2023-08-30T12:45:41;9.77;;;6.20;;
67869;SDS011;54673;52.262;6.830;2023-08-30T12:48:08;8.93;;;5.72;;
67869;SDS011;54673;52.262;6.830;2023-08-30T12:50:35;7.22;;;4.53;;
67869;SDS011;54673;52.262;6.830;2023-08-30T12:53:01;7.70;;;5.60;;
67869;SDS011;54673;52.262;6.830;2023-08-30T12:55:30;7.00;;;4.30;;
67869;SDS011;54673;52.262;6.830;2023-08-30T12:57:56;5.93;;;4.20;;
67869;SDS011;54673;52.262;6.830;2023-08-30T13:00:22;7.20;;;5.03;;
67869;SDS011;54673;52.262;6.830;2023-08-30T13:02:49;8.13;;;5.80;;
67869;SDS011;54673;52.262;6.830;2023-08-30T13:05:14;8.07;;;5.60;;
67869;SDS011;54673;52.262;6.830;2023-08-30T13:07:40;6.60;;;4.60;;
67869;SDS011;54673;52.262;6.830;2023-08-30T13:10:07;7.50;;;5.05;;
67869;SDS011;54673;52.262;6.830;2023-08-30T13:12:33;9.20;;;5.38;;
67869;SDS011;54673;52.262;6.830;2023-08-30T13:14:59;13.60;;;6.23;;
67869;SDS011;54673;52.262;6.830;2023-08-30T13:17:24;7.78;;;5.82;;
67869;SDS011;54673;52.262;6.830;2023-08-30T13:19:50;9.53;;;6.23;;
67869;SDS011;54673;52.262;6.830;2023-08-30T13:22:16;8.68;;;5.63;;
67869;SDS011;54673;52.262;6.830;2023-08-30T13:24:42;9.83;;;7.10;;
67869;SDS011;54673;52.262;6.830;2023-08-30T13:27:08;8.75;;;5.15;;
67869;SDS011;54673;52.262;6.830;2023-08-30T13:29:36;11.27;;;6.88;;
67869;SDS011;54673;52.262;6.830;2023-08-30T13:32:01;9.90;;;6.43;;
67869;SDS011;54673;52.262;6.830;2023-08-30T13:34:28;9.83;;;6.20;;
67869;SDS011;54673;52.262;6.830;2023-08-30T13:36:53;7.75;;;5.70;;
67869;SDS011;54673;52.262;6.830;2023-08-30T13:39:19;8.83;;;5.93;;
67869;SDS011;54673;52.262;6.830;2023-08-30T13:41:46;7.43;;;4.10;;
67869;SDS011;54673;52.262;6.830;2023-08-30T13:44:12;11.00;;;5.80;;
67869;SDS011;54673;52.262;6.830;2023-08-30T13:46:38;9.20;;;5.53;;
67869;SDS011;54673;52.262;6.830;2023-08-30T13:49:04;8.07;;;5.15;;
67869;SDS011;54673;52.262;6.830;2023-08-30T13:51:30;7.73;;;4.80;;
67869;SDS011;54673;52.262;6.830;2023-08-30T13:53:55;9.00;;;4.75;;
67869;SDS011;54673;52.262;6.830;2023-08-30T13:56:21;6.90;;;4.90;;
67869;SDS011;54673;52.262;6.830;2023-08-30T13:58:48;6.97;;;4.40;;
67869;SDS011;54673;52.262;6.830;2023-08-30T14:01:14;6.85;;;3.90;;
67869;SDS011;54673;52.262;6.830;2023-08-30T14:03:40;4.73;;;2.07;;
67869;SDS011;54673;52.262;6.830;2023-08-30T14:06:05;5.07;;;2.22;;
67869;SDS011;54673;52.262;6.830;2023-08-30T14:08:31;4.90;;;2.30;;
67869;SDS011;54673;52.262;6.830;2023-08-30T14:10:57;6.07;;;2.30;;
67869;SDS011;54673;52.262;6.830;2023-08-30T14:13:23;4.07;;;2.20;;
67869;SDS011;54673;52.262;6.830;2023-08-30T14:15:49;4.43;;;2.40;;
67869;SDS011;54673;52.262;6.830;2023-08-30T14:18:15;5.85;;;2.13;;
67869;SDS011;54673;52.262;6.830;2023-08-30T14:20:41;4.93;;;2.00;;
67869;SDS011;54673;52.262;6.830;2023-08-30T14:23:07;6.47;;;1.87;;
67869;SDS011;54673;52.262;6.830;2023-08-30T14:25:34;4.00;;;2.17;;
67869;SDS011;54673;52.262;6.830;2023-08-30T14:28:00;7.23;;;1.83;;
67869;SDS011;54673;52.262;6.830;2023-08-30T14:30:26;3.47;;;1.67;;
67869;SDS011;54673;52.262;6.830;2023-08-30T14:32:51;6.28;;;1.75;;
67869;SDS011;54673;52.262;6.830;2023-08-30T14:35:17;13.33;;;1.70;;
67869;SDS011;54673;52.262;6.830;2023-08-30T14:37:46;5.22;;;1.80;;
67869;SDS011;54673;52.262;6.830;2023-08-30T14:40:12;6.77;;;1.57;;
67869;SDS011;54673;52.262;6.830;2023-08-30T14:42:38;4.07;;;1.80;;
67869;SDS011;54673;52.262;6.830;2023-08-30T14:45:06;5.93;;;1.90;;
67869;SDS011;54673;52.262;6.830;2023-08-30T14:47:33;5.25;;;1.73;;